Time;durP1;ratioP1;P1;durP2;ratioP2;P2;SDS_P1;SDS_P2;PMS_P1;PMS_P2;Temp;Humidity;BMP_temperature;BMP_pressure;BME280_temperature;BME280_humidity;BME280_pressure;Samples;Min_cycle;Max_cycle;Signal;HPM_P1;HPM_P2
2022/09/19 00:01:19;;;;;;;11.57;2.30;;;11.80;99.90;;;;;;6002418;23;20042;-83
2022/09/19 00:03:50;;;;;;;15.82;2.35;;;11.80;99.90;;;;;;6003519;23;20012;-84
2022/09/19 00:06:17;;;;;;;13.02;2.60;;;11.80;99.90;;;;;;6002271;23;20087;-85
2022/09/19 00:08:44;;;;;;;13.18;2.60;;;11.80;99.90;;;;;;6002455;23;20047;-86
2022/09/19 00:11:12;;;;;;;12.18;2.35;;;11.80;99.90;;;;;;6025783;23;20082;-84
2022/09/19 00:13:44;;;;;;;15.52;2.72;;;11.80;99.90;;;;;;6001978;23;20030;-85
2022/09/19 00:16:11;;;;;;;13.50;2.67;;;11.90;99.90;;;;;;6002408;23;20091;-84
2022/09/19 00:18:36;;;;;;;14.07;2.90;;;11.80;99.90;;;;;;6001430;23;20020;-83
2022/09/19 00:21:02;;;;;;;16.73;3.05;;;11.90;99.90;;;;;;6002100;23;20027;-85
2022/09/19 00:26:17;;;;;;;12.73;2.50;;;11.80;99.90;;;;;;6002766;23;20526;-84
2022/09/19 00:28:44;;;;;;;14.88;3.10;;;11.80;99.90;;;;;;6002783;23;20030;-84
2022/09/19 00:31:19;;;;;;;13.35;3.08;;;11.80;99.90;;;;;;6002146;23;20027;-85
2022/09/19 00:33:47;;;;;;;13.75;3.53;;;11.80;99.90;;;;;;6003860;23;20016;-86
2022/09/19 00:36:15;;;;;;;12.18;2.72;;;11.80;99.90;;;;;;6004383;23;20015;-84
2022/09/19 00:38:40;;;;;;;13.10;3.05;;;11.80;99.90;;;;;;6001928;23;20086;-86
2022/09/19 00:41:07;;;;;;;12.02;2.63;;;11.80;99.90;;;;;;6001883;23;20055;-86
2022/09/19 00:43:46;;;;;;;12.95;2.70;;;11.80;99.90;;;;;;6002303;23;20020;-85
2022/09/19 00:46:12;;;;;;;12.07;2.22;;;11.80;99.90;;;;;;6002353;23;20148;-85
2022/09/19 00:48:41;;;;;;;12.32;2.67;;;11.80;99.90;;;;;;6001732;23;20048;-84
2022/09/19 00:51:12;;;;;;;13.30;2.72;;;11.90;99.90;;;;;;6002303;23;20214;-85
2022/09/19 00:53:39;;;;;;;12.63;2.53;;;11.90;99.90;;;;;;6001555;23;20024;-84
2022/09/19 00:56:05;;;;;;;12.60;2.42;;;11.90;99.90;;;;;;6003041;23;20012;-85
2022/09/19 00:58:38;;;;;;;16.70;3.08;;;11.90;99.90;;;;;;6000845;23;20020;-84
2022/09/19 01:01:03;;;;;;;14.98;2.80;;;11.90;99.90;;;;;;6002421;23;20099;-84
2022/09/19 01:03:30;;;;;;;15.23;2.85;;;11.90;99.90;;;;;;6003445;23;20051;-85
2022/09/19 01:06:32;;;;;;;13.82;2.50;;;11.80;99.90;;;;;;6002177;23;20035;-84
2022/09/19 01:09:35;;;;;;;12.52;2.72;;;11.90;99.90;;;;;;6001858;23;20019;-84
2022/09/19 01:12:19;;;;;;;12.23;2.35;;;11.80;99.90;;;;;;6003866;23;20011;-85
2022/09/19 01:15:13;;;;;;;14.30;3.10;;;11.80;99.90;;;;;;6003107;23;20039;-84
2022/09/19 01:17:54;;;;;;;19.63;3.20;;;11.80;99.90;;;;;;6001616;23;20016;-84
2022/09/19 01:20:31;;;;;;;15.55;2.95;;;11.80;99.90;;;;;;6002557;23;20020;-84
2022/09/19 01:23:05;;;;;;;11.98;3.08;;;11.80;99.90;;;;;;6003243;23;20019;-85
2022/09/19 01:26:15;;;;;;;13.55;2.70;;;11.80;99.90;;;;;;6003244;23;20027;-84
2022/09/19 01:28:47;;;;;;;14.73;2.88;;;11.80;99.90;;;;;;5948348;23;20054;-84
2022/09/19 01:31:22;;;;;;;13.57;2.40;;;11.80;99.90;;;;;;5978799;23;20027;-84
2022/09/19 01:34:02;;;;;;;11.13;2.53;;;11.80;99.90;;;;;;6004246;23;20063;-84
2022/09/19 01:36:32;;;;;;;17.63;2.88;;;11.80;99.90;;;;;;6002168;23;20462;-84
2022/09/19 01:39:02;;;;;;;14.45;3.15;;;11.80;99.90;;;;;;6002224;23;20015;-84
2022/09/19 01:41:29;;;;;;;17.40;3.05;;;11.80;99.90;;;;;;6003231;23;20330;-84
2022/09/19 01:43:58;;;;;;;15.57;3.13;;;11.80;99.90;;;;;;6001508;23;20027;-85
2022/09/19 01:46:49;;;;;;;13.93;2.97;;;11.80;99.90;;;;;;6002269;23;20086;-84
2022/09/19 01:49:26;;;;;;;12.97;2.83;;;11.70;99.90;;;;;;6002009;23;20016;-85
2022/09/19 01:52:06;;;;;;;12.05;2.70;;;11.70;99.90;;;;;;6002739;23;20229;-85
2022/09/19 01:55:04;;;;;;;14.80;2.72;;;11.70;99.90;;;;;;6003279;23;20071;-85
2022/09/19 01:57:35;;;;;;;14.35;2.92;;;11.70;99.90;;;;;;5971132;23;20020;-86
2022/09/19 02:00:06;;;;;;;15.77;2.85;;;11.70;99.90;;;;;;6001206;23;20016;-85
2022/09/19 02:03:25;;;;;;;13.15;2.78;;;11.70;99.90;;;;;;6001419;23;20103;-86
2022/09/19 02:06:35;;;;;;;16.42;3.22;;;11.70;99.90;;;;;;6001116;23;20387;-84
2022/09/19 02:09:34;;;;;;;14.02;2.80;;;11.70;99.90;;;;;;5956389;23;20075;-85
2022/09/19 02:12:02;;;;;;;15.98;3.45;;;11.80;99.90;;;;;;5916023;24;20013;-85
2022/09/19 02:14:33;;;;;;;15.05;3.10;;;11.80;99.90;;;;;;5915796;24;20020;-85
2022/09/19 02:17:07;;;;;;;14.30;2.90;;;11.80;99.90;;;;;;5916481;24;20120;-85
2022/09/19 02:20:01;;;;;;;14.55;3.13;;;11.80;99.90;;;;;;5894151;24;20187;-85
2022/09/19 02:22:31;;;;;;;16.48;3.60;;;11.80;99.90;;;;;;5892967;24;20455;-85
2022/09/19 02:25:05;;;;;;;18.98;3.53;;;11.70;99.90;;;;;;5917221;24;20648;-86
2022/09/19 02:28:04;;;;;;;17.80;3.42;;;11.80;99.90;;;;;;5893394;24;20021;-86
2022/09/19 02:30:30;;;;;;;20.13;3.85;;;11.80;99.90;;;;;;5894336;24;20025;-85
2022/09/19 02:32:57;;;;;;;18.83;3.42;;;11.80;99.90;;;;;;5917454;24;20048;-85
2022/09/19 02:35:36;;;;;;;22.55;3.67;;;11.90;99.90;;;;;;5917911;24;20392;-84
2022/09/19 02:38:27;;;;;;;15.52;3.40;;;11.90;99.90;;;;;;5894872;24;20021;-84
2022/09/19 02:41:12;;;;;;;17.95;4.20;;;11.90;99.90;;;;;;5917053;24;20017;-84
2022/09/19 02:43:46;;;;;;;17.38;4.00;;;11.90;99.90;;;;;;5918058;24;20017;-84
2022/09/19 02:46:30;;;;;;;19.30;3.70;;;12.00;99.90;;;;;;5894847;24;20017;-85
2022/09/19 02:49:12;;;;;;;20.95;3.90;;;11.90;99.90;;;;;;5951000;23;20079;-84
2022/09/19 02:51:54;;;;;;;17.55;2.75;;;11.90;99.90;;;;;;6004267;23;20812;-84
2022/09/19 02:54:29;;;;;;;17.65;3.33;;;11.90;99.90;;;;;;6026249;23;20027;-84
2022/09/19 02:57:01;;;;;;;20.17;3.42;;;11.90;99.90;;;;;;6002958;23;20023;-85
2022/09/19 02:59:35;;;;;;;17.55;3.22;;;11.80;99.90;;;;;;6004686;23;20012;-85
2022/09/19 03:02:07;;;;;;;17.42;3.40;;;11.80;99.90;;;;;;6003186;23;20182;-85
2022/09/19 03:04:39;;;;;;;16.27;3.38;;;11.70;99.90;;;;;;6001326;23;20400;-84
2022/09/19 03:07:37;;;;;;;;;;;11.80;99.90;;;;;;6003775;23;20023;-85
2022/09/19 03:10:09;;;;;;;16.80;3.05;;;11.60;99.90;;;;;;5941446;23;19992;-85
2022/09/19 03:12:49;;;;;;;13.75;2.80;;;11.60;99.90;;;;;;6002903;23;20020;-86
2022/09/19 03:15:16;;;;;;;15.32;2.92;;;11.70;99.90;;;;;;6003073;23;20034;-85
2022/09/19 03:17:46;;;;;;;15.95;2.88;;;11.70;99.90;;;;;;6004800;23;20019;-85
2022/09/19 03:20:14;;;;;;;15.63;2.92;;;11.70;99.90;;;;;;6002838;23;20023;-84
2022/09/19 03:22:40;;;;;;;13.30;2.80;;;11.70;99.90;;;;;;6003055;23;20345;-85
2022/09/19 03:25:10;;;;;;;16.83;3.25;;;11.70;99.90;;;;;;6002887;23;20091;-85
2022/09/19 03:27:38;;;;;;;13.57;2.88;;;11.70;99.90;;;;;;6002055;23;20019;-85
2022/09/19 03:30:09;;;;;;;16.55;2.78;;;11.60;99.90;;;;;;6002722;23;20023;-85
2022/09/19 03:32:37;;;;;;;13.45;2.60;;;11.60;99.90;;;;;;6003120;23;20024;-85
2022/09/19 03:35:04;;;;;;;15.18;3.35;;;11.60;99.90;;;;;;6004280;23;20019;-85
2022/09/19 03:37:32;;;;;;;14.43;2.92;;;11.60;99.90;;;;;;6002309;23;20022;-84
2022/09/19 03:39:58;;;;;;;15.77;3.17;;;11.60;99.90;;;;;;6001783;23;20023;-85
2022/09/19 03:42:25;;;;;;;15.00;3.30;;;11.60;99.90;;;;;;6003112;23;20019;-85
2022/09/19 03:44:51;;;;;;;17.05;3.67;;;11.60;99.90;;;;;;6004118;23;20072;-84
2022/09/19 03:47:20;;;;;;;12.73;2.70;;;11.60;99.90;;;;;;6002764;23;20106;-85
2022/09/19 03:49:46;;;;;;;14.95;2.65;;;11.50;99.90;;;;;;6002889;23;20020;-85
2022/09/19 03:52:11;;;;;;;14.85;3.22;;;11.50;99.90;;;;;;6005190;23;20015;-85
2022/09/19 03:54:37;;;;;;;11.98;3.25;;;11.50;99.90;;;;;;6003782;23;20031;-85
2022/09/19 03:57:03;;;;;;;14.23;2.80;;;11.50;99.90;;;;;;6004347;23;20026;-85
2022/09/19 03:59:29;;;;;;;14.27;3.13;;;11.50;99.90;;;;;;6003428;23;20011;-84
2022/09/19 04:01:54;;;;;;;13.60;2.95;;;11.50;99.90;;;;;;6002173;23;20468;-86
2022/09/19 04:04:21;;;;;;;14.60;2.80;;;11.50;99.90;;;;;;5979097;23;20060;-85
2022/09/19 04:06:47;;;;;;;14.77;3.08;;;11.60;99.90;;;;;;6004462;23;20055;-85
2022/09/19 04:09:13;;;;;;;14.52;2.65;;;11.60;99.90;;;;;;6002891;23;20086;-86
2022/09/19 04:11:41;;;;;;;15.05;3.08;;;11.60;99.90;;;;;;6002475;23;20050;-86
2022/09/19 04:14:09;;;;;;;12.70;2.50;;;11.50;99.90;;;;;;6003960;23;20016;-86
2022/09/19 04:16:35;;;;;;;11.55;2.50;;;11.60;99.90;;;;;;6001526;23;20090;-86
2022/09/19 04:19:00;;;;;;;15.68;2.88;;;11.60;99.90;;;;;;6002465;23;20016;-85
2022/09/19 04:21:27;;;;;;;15.02;2.65;;;11.60;99.90;;;;;;6003150;23;20026;-85
2022/09/19 04:23:54;;;;;;;14.02;2.70;;;11.60;99.90;;;;;;6002593;23;20026;-87
2022/09/19 04:26:21;;;;;;;18.15;2.75;;;11.60;99.90;;;;;;6004309;23;20015;-86
2022/09/19 04:28:47;;;;;;;11.05;2.70;;;11.60;99.90;;;;;;6001876;23;20019;-86
2022/09/19 04:31:13;;;;;;;13.85;2.97;;;11.70;99.90;;;;;;6002703;23;20023;-86
2022/09/19 04:33:39;;;;;;;15.52;3.05;;;11.70;99.90;;;;;;6002668;23;20054;-87
2022/09/19 04:36:06;;;;;;;13.85;2.85;;;11.70;99.90;;;;;;6002206;23;20446;-85
2022/09/19 04:38:33;;;;;;;12.65;2.42;;;11.70;99.90;;;;;;6003091;23;20011;-86
2022/09/19 04:41:00;;;;;;;13.75;2.70;;;11.70;99.90;;;;;;6004184;23;20008;-86
2022/09/19 04:43:27;;;;;;;13.52;2.70;;;11.70;99.90;;;;;;6002678;23;20516;-85
2022/09/19 04:45:56;;;;;;;15.70;2.92;;;11.70;99.90;;;;;;6001537;23;20083;-86
2022/09/19 04:48:23;;;;;;;18.00;3.03;;;11.70;99.90;;;;;;5999207;23;20015;-85
2022/09/19 04:50:51;;;;;;;14.65;2.78;;;11.70;99.90;;;;;;6000791;23;20391;-85
2022/09/19 04:53:18;;;;;;;15.13;2.88;;;11.70;99.90;;;;;;6003429;23;20083;-85
2022/09/19 04:55:48;;;;;;;14.60;2.67;;;11.70;99.90;;;;;;6001469;23;20401;-85
2022/09/19 04:58:15;;;;;;;15.05;3.85;;;11.70;99.90;;;;;;6001180;23;20617;-85
2022/09/19 05:00:41;;;;;;;11.48;2.03;;;11.70;99.90;;;;;;6001348;23;20019;-87
2022/09/19 05:03:16;;;;;;;12.73;2.83;;;11.70;99.90;;;;;;6001883;23;20347;-85
2022/09/19 05:05:44;;;;;;;12.95;2.90;;;11.70;99.90;;;;;;6000917;23;20023;-85
2022/09/19 05:08:18;;;;;;;15.85;2.78;;;11.70;99.90;;;;;;6003604;23;20448;-85
2022/09/19 05:10:45;;;;;;;14.98;2.55;;;11.70;99.90;;;;;;6002493;23;20086;-84
2022/09/19 05:13:11;;;;;;;15.88;2.95;;;11.70;99.90;;;;;;6004248;23;20022;-85
2022/09/19 05:15:40;;;;;;;15.07;2.97;;;11.70;99.90;;;;;;6001199;23;20028;-85
2022/09/19 05:18:05;;;;;;;15.20;3.22;;;11.70;99.90;;;;;;6001913;23;20111;-85
2022/09/19 05:20:31;;;;;;;16.10;3.03;;;11.70;99.90;;;;;;6000870;23;20020;-86
2022/09/19 05:23:00;;;;;;;16.85;3.55;;;11.70;99.90;;;;;;6000180;23;20470;-86
2022/09/19 05:25:30;;;;;;;13.23;2.47;;;11.70;99.90;;;;;;6001789;23;20020;-86
2022/09/19 05:27:57;;;;;;;16.48;3.20;;;11.70;99.90;;;;;;6003726;23;20027;-86
2022/09/19 05:30:24;;;;;;;15.13;2.95;;;11.70;99.90;;;;;;6003215;23;20019;-85
2022/09/19 05:32:54;;;;;;;15.88;2.90;;;11.80;99.90;;;;;;6002252;23;20027;-87
2022/09/19 05:35:20;;;;;;;16.85;2.80;;;11.80;99.90;;;;;;6001843;23;20024;-85
2022/09/19 05:37:46;;;;;;;13.70;2.85;;;11.80;99.90;;;;;;5999300;23;20050;-85
2022/09/19 05:40:12;;;;;;;16.05;2.95;;;11.80;99.90;;;;;;6001557;23;20015;-85
2022/09/19 05:42:43;;;;;;;17.45;3.10;;;11.80;99.90;;;;;;6025859;23;20020;-85
2022/09/19 05:45:10;;;;;;;17.17;3.20;;;11.80;99.90;;;;;;6001174;23;20143;-85
2022/09/19 05:47:39;;;;;;;15.80;3.15;;;11.80;99.90;;;;;;6002984;23;20094;-85
2022/09/19 05:50:09;;;;;;;13.13;2.95;;;11.80;99.90;;;;;;6001656;23;20019;-85
2022/09/19 05:55:25;;;;;;;16.25;3.50;;;11.70;99.90;;;;;;6003072;23;20028;-85
2022/09/19 05:57:58;;;;;;;16.13;2.80;;;11.70;99.90;;;;;;6003394;23;20016;-85
2022/09/19 06:00:25;;;;;;;16.58;3.90;;;11.70;99.90;;;;;;6001542;23;20012;-84
2022/09/19 06:03:02;;;;;;;15.02;3.72;;;11.60;99.90;;;;;;6001500;23;20034;-85
2022/09/19 06:05:32;;;;;;;16.25;4.63;;;11.60;99.90;;;;;;6002604;23;20181;-84
2022/09/19 06:07:58;;;;;;;16.77;4.40;;;11.60;99.90;;;;;;6002181;23;20094;-85
2022/09/19 06:10:26;;;;;;;18.17;4.28;;;11.60;99.90;;;;;;6003005;23;20111;-85
2022/09/19 06:12:55;;;;;;;14.70;4.28;;;11.70;99.90;;;;;;6003271;23;20140;-85
2022/09/19 06:15:22;;;;;;;18.65;5.20;;;11.70;99.90;;;;;;6001912;23;20024;-85
2022/09/19 06:17:56;;;;;;;17.02;3.97;;;11.70;99.90;;;;;;6004304;23;20019;-83
2022/09/19 06:20:22;;;;;;;14.80;4.05;;;11.80;99.90;;;;;;6004638;23;20019;-85
2022/09/19 06:22:47;;;;;;;12.60;3.53;;;11.80;99.90;;;;;;6001107;23;20058;-85
2022/09/19 06:25:13;;;;;;;15.88;3.55;;;11.80;99.90;;;;;;6004977;23;20362;-85
2022/09/19 06:27:44;;;;;;;16.70;3.92;;;11.80;99.90;;;;;;6005565;23;20616;-86
2022/09/19 06:30:10;;;;;;;12.93;2.78;;;11.90;99.90;;;;;;6005302;23;20011;-86
2022/09/19 06:32:38;;;;;;;15.20;3.65;;;12.00;99.90;;;;;;6002865;23;20071;-86
2022/09/19 06:35:04;;;;;;;13.10;2.42;;;12.00;99.90;;;;;;6005820;23;20020;-86
2022/09/19 06:37:30;;;;;;;14.77;3.58;;;12.00;99.90;;;;;;6003363;23;20020;-86
2022/09/19 06:39:56;;;;;;;12.95;2.92;;;12.00;99.90;;;;;;6000854;23;20023;-85
2022/09/19 06:42:22;;;;;;;14.82;2.90;;;12.00;99.90;;;;;;6003042;23;20015;-85
2022/09/19 06:44:47;;;;;;;13.73;2.90;;;12.00;99.90;;;;;;6003939;23;20103;-85
2022/09/19 06:47:13;;;;;;;15.30;3.35;;;12.10;99.90;;;;;;6005332;23;20437;-85
2022/09/19 06:49:39;;;;;;;13.60;2.97;;;12.00;99.90;;;;;;6003468;23;20012;-84
2022/09/19 06:52:04;;;;;;;13.43;2.67;;;12.00;99.90;;;;;;6002069;23;20049;-85
2022/09/19 06:54:31;;;;;;;13.55;2.92;;;12.00;99.90;;;;;;6003013;23;20016;-86
2022/09/19 06:56:56;;;;;;;16.25;3.58;;;12.00;99.90;;;;;;6002346;23;20063;-85
2022/09/19 06:59:22;;;;;;;13.18;3.05;;;12.00;99.90;;;;;;6002582;23;20452;-85
2022/09/19 07:01:48;;;;;;;12.77;2.72;;;12.10;99.90;;;;;;6001684;23;20512;-86
2022/09/19 07:04:15;;;;;;;10.45;2.70;;;12.10;99.90;;;;;;6002253;23;20056;-85
2022/09/19 07:06:40;;;;;;;12.15;2.60;;;12.20;99.90;;;;;;6002550;23;20343;-85
2022/09/19 07:09:09;;;;;;;11.77;2.50;;;12.20;99.90;;;;;;5978919;23;20454;-85
2022/09/19 07:11:36;;;;;;;13.85;3.05;;;12.30;99.90;;;;;;6002591;23;20055;-85
2022/09/19 07:14:03;;;;;;;15.07;2.80;;;12.40;99.90;;;;;;6001739;23;20011;-85
2022/09/19 07:16:29;;;;;;;12.68;3.20;;;12.40;99.90;;;;;;6000847;23;20024;-88
2022/09/19 07:18:55;;;;;;;15.27;2.97;;;12.40;99.90;;;;;;6001686;23;20434;-87
2022/09/19 07:21:20;;;;;;;14.10;2.83;;;12.40;99.90;;;;;;6005193;23;20128;-86
2022/09/19 07:23:47;;;;;;;16.15;2.58;;;12.50;99.90;;;;;;6002399;23;20323;-86
2022/09/19 07:26:16;;;;;;;14.73;2.15;;;12.50;99.90;;;;;;6003316;23;20012;-86
2022/09/19 07:28:42;;;;;;;12.95;2.45;;;12.50;99.90;;;;;;6003529;23;20011;-87
2022/09/19 07:31:07;;;;;;;10.68;2.35;;;12.50;99.90;;;;;;6003333;23;20019;-87
2022/09/19 07:33:33;;;;;;;12.27;2.40;;;12.50;99.90;;;;;;6002879;23;20026;-87
2022/09/19 07:35:59;;;;;;;9.32;2.22;;;12.60;99.90;;;;;;6002201;23;20068;-87
2022/09/19 07:38:28;;;;;;;13.07;2.75;;;12.60;99.90;;;;;;6003247;23;20011;-86
2022/09/19 07:40:54;;;;;;;12.13;2.55;;;12.70;99.90;;;;;;6001529;23;20800;-87
2022/09/19 07:43:20;;;;;;;12.18;2.40;;;12.70;99.90;;;;;;6002614;23;20020;-88
2022/09/19 07:45:48;;;;;;;13.70;2.67;;;12.70;99.90;;;;;;6002011;23;20016;-87
2022/09/19 07:48:15;;;;;;;15.20;2.80;;;12.80;99.90;;;;;;6005468;23;20016;-87
2022/09/19 07:50:41;;;;;;;12.68;2.47;;;12.80;99.90;;;;;;6003826;23;20024;-88
2022/09/19 07:53:10;;;;;;;13.23;2.58;;;12.80;99.90;;;;;;6005062;23;20023;-88
2022/09/19 07:55:36;;;;;;;16.40;2.60;;;12.90;99.90;;;;;;6002870;23;20023;-87
2022/09/19 07:58:03;;;;;;;14.32;2.35;;;12.90;99.90;;;;;;6002613;23;20019;-87
2022/09/19 08:00:30;;;;;;;13.48;3.22;;;13.00;99.90;;;;;;6004387;23;20020;-87
2022/09/19 08:02:57;;;;;;;13.25;2.65;;;13.00;99.90;;;;;;6003037;23;20012;-86
2022/09/19 08:05:24;;;;;;;14.77;2.92;;;13.10;99.90;;;;;;6003579;23;20408;-86
2022/09/19 08:07:51;;;;;;;15.00;2.60;;;13.00;99.90;;;;;;6003547;23;20023;-87
2022/09/19 08:10:18;;;;;;;12.93;2.63;;;13.10;99.90;;;;;;6005302;23;20050;-86
2022/09/19 08:12:44;;;;;;;12.45;2.55;;;13.20;99.90;;;;;;6004651;23;20398;-87
2022/09/19 08:15:17;;;;;;;15.98;2.97;;;13.20;99.90;;;;;;6001523;23;20016;-87
2022/09/19 08:17:53;;;;;;;14.30;2.67;;;13.30;99.90;;;;;;6003503;23;20066;-87
2022/09/19 08:20:19;;;;;;;13.65;2.85;;;13.30;99.90;;;;;;6003796;23;20342;-87
2022/09/19 08:22:45;;;;;;;12.25;2.47;;;13.30;99.90;;;;;;6004338;23;20016;-87
2022/09/19 08:25:11;;;;;;;10.73;2.30;;;13.30;99.90;;;;;;6003026;23;20038;-86
2022/09/19 08:27:37;;;;;;;13.02;2.90;;;13.30;99.90;;;;;;6002415;23;20046;-87
2022/09/19 08:30:04;;;;;;;15.23;3.22;;;13.30;99.90;;;;;;6001948;23;20590;-86
2022/09/19 08:32:31;;;;;;;14.15;2.25;;;13.40;99.90;;;;;;6009268;23;20012;-86
2022/09/19 08:34:57;;;;;;;10.40;2.38;;;13.40;99.90;;;;;;6008857;23;20012;-86
2022/09/19 08:37:23;;;;;;;12.57;2.78;;;13.50;99.90;;;;;;6003396;23;20051;-87
2022/09/19 08:43:04;;;;;;;11.88;2.55;;;13.70;99.90;;;;;;6001373;23;20023;-87
2022/09/19 08:45:58;;;;;;;13.13;2.28;;;13.80;99.90;;;;;;6001490;23;20042;-85
2022/09/19 08:48:32;;;;;;;15.05;3.17;;;14.00;99.90;;;;;;6003017;23;20059;-87
2022/09/19 08:51:03;;;;;;;10.57;2.25;;;14.10;99.90;;;;;;6004606;23;20015;-86
2022/09/19 08:53:37;;;;;;;11.82;2.53;;;14.20;99.90;;;;;;6004583;23;20023;-86
2022/09/19 08:56:04;;;;;;;12.02;2.92;;;14.20;99.90;;;;;;6002233;23;20054;-85
2022/09/19 08:58:34;;;;;;;14.32;2.75;;;14.20;99.90;;;;;;6003182;23;20012;-86
2022/09/19 09:01:04;;;;;;;15.50;3.03;;;14.20;99.90;;;;;;6003981;23;20058;-86
2022/09/19 09:03:41;;;;;;;14.25;2.80;;;14.20;99.90;;;;;;6000616;23;20019;-85
2022/09/19 09:06:40;;;;;;;13.18;2.33;;;14.20;99.90;;;;;;6004205;23;20030;-86
2022/09/19 09:09:11;;;;;;;15.45;2.90;;;14.30;99.90;;;;;;6002413;23;20022;-86
2022/09/19 09:11:49;;;;;;;11.90;2.42;;;14.40;99.90;;;;;;6000308;23;20087;-85
2022/09/19 09:14:29;;;;;;;13.00;2.45;;;14.50;99.90;;;;;;6001675;23;20059;-86
2022/09/19 09:17:40;;;;;;;14.93;2.70;;;14.70;99.90;;;;;;6002870;23;20020;-87
2022/09/19 09:20:14;;;;;;;12.43;2.35;;;14.80;99.90;;;;;;5998026;23;20095;-87
2022/09/19 09:22:59;;;;;;;13.63;3.00;;;14.90;99.90;;;;;;6002599;23;20022;-84
2022/09/19 09:25:29;;;;;;;13.38;2.80;;;15.10;99.90;;;;;;5978215;23;20095;-86
2022/09/19 09:28:06;;;;;;;10.97;2.20;;;15.20;99.90;;;;;;6003122;23;20042;-85
2022/09/19 09:30:38;;;;;;;8.57;1.95;;;15.20;99.90;;;;;;6003431;23;20016;-87
2022/09/19 09:33:27;;;;;;;11.15;2.53;;;15.10;99.90;;;;;;6026493;23;20027;-87
2022/09/19 09:36:06;;;;;;;11.10;1.90;;;15.20;99.90;;;;;;6002041;23;20714;-85
2022/09/19 09:38:57;;;;;;;9.27;2.17;;;15.10;99.90;;;;;;6001946;23;20350;-86
2022/09/19 09:41:49;;;;;;;11.43;2.28;;;15.10;99.90;;;;;;5988368;23;20042;-87
2022/09/19 09:44:32;;;;;;;9.55;1.90;;;15.10;99.90;;;;;;6002298;23;20070;-86
2022/09/19 09:47:01;;;;;;;9.13;2.20;;;15.10;99.90;;;;;;6004130;23;20012;-85
2022/09/19 09:49:29;;;;;;;12.00;2.13;;;15.20;99.90;;;;;;6003864;23;20350;-84
2022/09/19 09:52:14;;;;;;;8.20;1.85;;;15.30;99.90;;;;;;6002675;23;20012;-87
2022/09/19 09:58:33;;;;;;;9.32;2.00;;;15.30;99.90;;;;;;5944547;24;20104;-87
2022/09/19 10:04:41;;;;;;;13.90;2.40;;;15.20;99.90;;;;;;5888354;24;20049;-85
2022/09/19 10:07:30;;;;;;;11.73;2.25;;;15.30;99.90;;;;;;5890001;24;20086;-86
2022/09/19 10:10:01;;;;;;;15.07;2.90;;;15.30;99.90;;;;;;5867177;24;20100;-87
2022/09/19 10:12:36;;;;;;;12.18;3.22;;;15.40;99.90;;;;;;5867289;24;20519;-85
2022/09/19 10:15:08;;;;;;;12.38;2.63;;;15.40;99.90;;;;;;5867322;24;20022;-87
2022/09/19 10:17:39;;;;;;;11.48;2.40;;;15.50;99.90;;;;;;5866910;24;20025;-87
2022/09/19 10:20:15;;;;;;;14.07;2.67;;;15.70;99.90;;;;;;5866851;24;20178;-86
2022/09/19 10:22:41;;;;;;;12.60;2.63;;;15.80;99.90;;;;;;5866591;24;20024;-85
2022/09/19 10:25:13;;;;;;;9.90;1.77;;;16.00;99.90;;;;;;5866631;24;20029;-85
2022/09/19 10:27:41;;;;;;;9.38;1.67;;;16.00;99.90;;;;;;5866579;24;20051;-86
2022/09/19 10:30:16;;;;;;;8.38;1.83;;;15.90;99.90;;;;;;5890418;24;20472;-86
2022/09/19 10:32:43;;;;;;;8.93;1.90;;;15.70;99.90;;;;;;5867463;24;20415;-85
2022/09/19 10:35:30;;;;;;;9.93;1.92;;;15.50;99.90;;;;;;5934164;24;20028;-86
2022/09/19 10:38:16;;;;;;;11.18;2.22;;;15.50;99.90;;;;;;5948958;23;20022;-87
2022/09/19 10:40:58;;;;;;;11.60;2.30;;;15.50;99.90;;;;;;6000667;23;20384;-85
2022/09/19 10:43:31;;;;;;;9.80;2.60;;;15.50;99.90;;;;;;6002444;23;20087;-84
2022/09/19 10:46:06;;;;;;;9.70;2.00;;;15.50;99.90;;;;;;6001260;23;20055;-86
2022/09/19 10:48:34;;;;;;;10.65;2.17;;;15.60;99.90;;;;;;6002910;23;20024;-86
2022/09/19 10:51:05;;;;;;;10.40;2.17;;;15.60;99.90;;;;;;6003233;23;20023;-86
2022/09/19 10:53:32;;;;;;;11.40;2.17;;;15.60;99.90;;;;;;6003584;23;20027;-85
2022/09/19 10:56:11;;;;;;;8.60;1.60;;;15.70;99.90;;;;;;6002437;23;20023;-86
2022/09/19 10:58:41;;;;;;;6.18;1.65;;;15.70;99.90;;;;;;6005066;23;20039;-85
2022/09/19 11:01:22;;;;;;;7.97;1.52;;;15.70;99.90;;;;;;6004274;23;20461;-87
2022/09/19 11:04:23;;;;;;;7.30;1.40;;;15.60;99.90;;;;;;6003737;23;20391;-85
2022/09/19 11:06:59;;;;;;;9.20;1.90;;;15.50;99.90;;;;;;6001703;23;20019;-86
2022/09/19 11:09:37;;;;;;;7.93;1.83;;;15.50;99.90;;;;;;6003236;23;20441;-84
2022/09/19 11:12:22;;;;;;;8.95;1.90;;;15.50;99.90;;;;;;6002468;23;20066;-86
2022/09/19 11:14:49;;;;;;;9.55;1.55;;;15.40;99.90;;;;;;6002592;23;20076;-85
2022/09/19 11:17:33;;;;;;;6.30;1.33;;;15.30;99.90;;;;;;6001810;23;20075;-86
2022/09/19 11:20:37;;;;;;;9.10;1.95;;;15.30;99.90;;;;;;6002293;23;20019;-85
2022/09/19 11:23:52;;;;;;;10.95;1.95;;;15.30;99.90;;;;;;6002335;23;20020;-84
2022/09/19 11:26:59;;;;;;;9.07;1.90;;;15.30;99.90;;;;;;6001138;23;20012;-84
2022/09/19 11:29:55;;;;;;;9.63;2.10;;;15.30;99.90;;;;;;5891838;24;20040;-85
2022/09/19 11:32:44;;;;;;;9.20;2.00;;;15.40;99.90;;;;;;5894899;24;20090;-85
2022/09/19 11:35:27;;;;;;;10.70;2.13;;;15.60;99.90;;;;;;5918014;24;20021;-84
2022/09/19 11:39:03;;;;;;;11.90;2.38;;;15.70;99.90;;;;;;5894695;24;20028;-84
2022/09/19 11:41:40;;;;;;;11.02;2.50;;;15.80;99.90;;;;;;5787887;24;20358;-86
2022/09/19 11:44:39;;;;;;;13.55;3.00;;;15.90;99.90;;;;;;5788219;24;20089;-84
2022/09/19 11:47:35;;;;;;;14.00;2.70;;;16.00;99.90;;;;;;5787390;24;20030;-85
2022/09/19 11:50:15;;;;;;;11.35;2.55;;;16.10;99.90;;;;;;5808545;24;20075;-85
2022/09/19 11:53:11;;;;;;;12.85;2.45;;;16.20;99.90;;;;;;5788039;24;20109;-86
2022/09/19 11:55:56;;;;;;;10.98;2.80;;;16.20;99.90;;;;;;5787498;24;20030;-87
2022/09/19 11:58:29;;;;;;;11.50;2.45;;;15.90;99.90;;;;;;5809851;24;20868;-86
2022/09/19 12:01:25;;;;;;;9.20;2.03;;;15.40;99.90;;;;;;5788468;24;20170;-87
2022/09/19 12:04:25;;;;;;;9.45;1.90;;;15.10;99.90;;;;;;5755130;24;20027;-87
2022/09/19 12:07:10;;;;;;;9.85;1.92;;;14.90;99.90;;;;;;5868534;24;20044;-87
2022/09/19 12:10:16;;;;;;;9.70;2.08;;;14.60;99.90;;;;;;5917332;24;20013;-87
2022/09/19 12:12:45;;;;;;;10.57;2.00;;;14.20;99.90;;;;;;5896105;24;20121;-90
2022/09/19 12:15:22;;;;;;;12.38;2.30;;;14.00;99.90;;;;;;5943365;24;20023;-89
2022/09/19 12:18:02;;;;;;;11.88;2.20;;;13.90;99.90;;;;;;5991346;23;20016;-88
2022/09/19 12:20:45;;;;;;;13.43;2.53;;;13.70;99.90;;;;;;6004500;23;20015;-88
2022/09/19 12:26:11;;;;;;;9.75;2.15;;;13.40;99.90;;;;;;6004095;23;20032;-86
2022/09/19 12:28:42;;;;;;;9.20;1.95;;;13.30;99.90;;;;;;6002318;23;20019;-85
2022/09/19 12:31:13;;;;;;;8.40;1.70;;;13.30;99.90;;;;;;6002649;23;20047;-88
2022/09/19 12:33:57;;;;;;;8.90;1.90;;;13.10;99.90;;;;;;6003956;23;20334;-86
2022/09/19 12:36:33;;;;;;;9.50;2.08;;;13.10;99.90;;;;;;5999796;23;20027;-87
2022/09/19 12:39:05;;;;;;;7.18;1.83;;;13.10;99.90;;;;;;6003581;23;20047;-86
2022/09/19 12:41:46;;;;;;;10.25;2.20;;;13.10;99.90;;;;;;6001887;23;20342;-86
2022/09/19 12:44:47;;;;;;;11.15;1.98;;;13.20;99.90;;;;;;6003550;23;20088;-85
2022/09/19 12:47:35;;;;;;;10.82;1.92;;;13.20;99.90;;;;;;6002382;23;20395;-87
2022/09/19 12:50:32;;;;;;;9.45;2.10;;;13.20;99.90;;;;;;6001064;23;20016;-86
2022/09/19 12:53:18;;;;;;;12.45;2.83;;;13.20;99.90;;;;;;6003958;23;20094;-86
2022/09/19 12:56:16;;;;;;;9.93;2.67;;;13.30;99.90;;;;;;6000365;23;20450;-86
2022/09/19 12:58:48;;;;;;;11.10;2.17;;;13.30;99.90;;;;;;6003921;23;20020;-86
2022/09/19 13:01:23;;;;;;;11.38;2.50;;;13.40;99.90;;;;;;6006778;23;20028;-88
2022/09/19 13:04:00;;;;;;;15.90;2.60;;;13.60;99.90;;;;;;6001450;23;20028;-87
2022/09/19 13:06:30;;;;;;;12.82;2.63;;;13.70;99.90;;;;;;6003119;23;20012;-89
2022/09/19 13:09:14;;;;;;;17.98;3.63;;;13.90;99.90;;;;;;5976360;23;20095;-85
2022/09/19 13:11:45;;;;;;;15.73;3.40;;;14.10;99.90;;;;;;6000427;23;20035;-89
2022/09/19 13:14:23;;;;;;;17.10;2.75;;;14.20;99.90;;;;;;6001028;23;20062;-88
2022/09/19 13:25:20;;;;;;;11.32;2.00;;;13.90;99.90;;;;;;6002839;23;20020;-86
2022/09/19 13:28:06;;;;;;;11.73;2.50;;;13.60;99.90;;;;;;6000574;23;20071;-86
2022/09/19 13:31:04;;;;;;;10.02;2.35;;;13.50;99.90;;;;;;6001140;23;20592;-86
2022/09/19 13:33:48;;;;;;;11.88;2.90;;;13.30;99.90;;;;;;5965363;23;20729;-87
2022/09/19 13:36:39;;;;;;;13.27;2.47;;;13.30;99.90;;;;;;6001850;23;20091;-87
2022/09/19 13:39:43;;;;;;;11.82;2.13;;;13.20;99.90;;;;;;5988604;23;20144;-85
2022/09/19 13:42:15;;;;;;;11.52;2.17;;;13.30;99.90;;;;;;6003852;23;20016;-87